SEIO2: N.Canadian R., Seiling, OK

Data processed at Wed May 22 2019 23:30


All information presented herein is the property of the government of the United States of America and may be revised or deleted at any time without prior notice.
Dissemination of this information without the expressed written consent of the Public Affairs Office, Tulsa District U.S. Army Corps of Engineers is strictly prohibited.
These data are gathered electronically and, as presented, have not undergone any form of quality control. These data are not guaranteed to be valid or correct.
Go to home page.
Go to station list.
Go to home page.

Upstream stations:

Downstream station:
Previous Day
Next Day
Current Day
    
SHEF ID:       SEIO2     North Canadian River near Seilin
STATION TYPE:  
Regulating: Stage =    11.00, Flow =     1272

               PRECIP     STAGE  STAGE(2)  RIV-FLOW  BAT-LOAD
                   in        ft        ft       cfs      volt
              Ccp-Rev   Ccp-Rev   Ccp-Rev   Ccp-Rev   Ccp-Rev
(US/Central)
05/22 00:00      0.00     12.63      ----      2175     12.89
05/22 01:00      0.00     12.70      ----      2226     12.83
05/22 02:00      0.00     12.78      ----      2286     12.83
05/22 03:00      0.00     12.80      ----      2301     12.83
05/22 04:00      0.00     12.84      ----      2340     12.77
05/22 05:00      0.00     12.91      ----      2409     12.77
05/22 06:00      0.00     12.97      ----      2470     12.77
05/22 07:00      0.00     13.02      ----      2522     12.77
05/22 08:00      0.00     13.02      ----      2522     13.65
05/22 09:00      0.00     13.01      ----      2511     13.65
05/22 10:00      0.00     12.98      ----      2480     13.65
05/22 11:00      0.00     12.96      ----      2460     13.24
05/22 12:00      0.00     12.90      ----      2399     13.24
05/22 13:00      0.00     12.84      ----      2340     13.53
05/22 14:00      0.00     12.77      ----      2278     13.77
05/22 15:00      0.00     12.71      ----      2234     13.77
05/22 16:00      0.00     12.66      ----      2197     13.42
05/22 17:00      0.00     12.62      ----      2168     13.00
05/22 18:00      0.00     12.59      ----      2147     13.00
05/22 19:00      0.00     12.55      ----      2118     13.00
05/22 20:00      0.00     12.51      ----      2090     13.00
05/22 21:00      0.00     12.48      ----      2069     12.95
05/22 22:00      0.26     12.46      ----      2055     12.89
05/22 23:00      0.00     12.46      ----      2055     12.89